createdAt,value
2019-01-17T00:00:36.458Z,18.17
2019-01-17T00:03:03.415Z,18.48
2019-01-17T00:05:30.597Z,15.28
2019-01-17T00:07:57.546Z,15.28
2019-01-17T00:10:24.832Z,14.03
2019-01-17T00:12:51.905Z,10.15
2019-01-17T00:15:18.831Z,11.15
2019-01-17T00:17:45.934Z,12.63
2019-01-17T00:20:13.007Z,13.80
2019-01-17T00:22:40.323Z,10.23
2019-01-17T00:25:07.547Z,11.35
2019-01-17T00:27:34.691Z,18.57
2019-01-17T00:30:01.583Z,15.48
2019-01-17T00:32:28.756Z,15.70
2019-01-17T00:34:56.850Z,14.83
2019-01-17T00:37:24.232Z,15.20
2019-01-17T00:39:51.403Z,14.83
2019-01-17T00:42:18.577Z,14.25
2019-01-17T00:44:53.460Z,14.55
2019-01-17T00:47:20.406Z,12.68
2019-01-17T00:49:49.816Z,15.55
2019-01-17T00:52:16.327Z,11.88
2019-01-17T00:54:43.267Z,12.55
2019-01-17T00:57:16.342Z,11.33
2019-01-17T00:59:43.295Z,13.25
2019-01-17T01:02:10.061Z,16.27
2019-01-17T01:04:37.027Z,16.12
2019-01-17T01:07:04.194Z,12.93
2019-01-17T01:09:31.261Z,8.58
2019-01-17T01:14:46.336Z,12.45
2019-01-17T01:17:13.425Z,13.00
2019-01-17T01:19:40.604Z,11.30
2019-01-17T01:22:07.584Z,11.43
2019-01-17T01:24:34.435Z,10.93
2019-01-17T01:27:01.913Z,12.78
2019-01-17T01:29:28.994Z,10.10
2019-01-17T01:31:55.965Z,10.58
2019-01-17T01:34:32.467Z,9.73
2019-01-17T01:36:59.606Z,8.70
2019-01-17T01:39:26.786Z,8.45
2019-01-17T01:41:53.846Z,7.10
2019-01-17T01:44:21.126Z,7.92
2019-01-17T01:46:55.345Z,5.45
2019-01-17T01:49:24.205Z,7.25
2019-01-17T01:51:51.126Z,6.25
2019-01-17T01:54:21.972Z,7.50
2019-01-17T01:56:46.605Z,6.47
2019-01-17T01:59:18.925Z,6.83
2019-01-17T02:01:46.156Z,7.55
2019-01-17T02:04:16.264Z,7.03
2019-01-17T02:06:44.689Z,6.78
2019-01-17T02:09:11.553Z,6.95
2019-01-17T02:14:10.701Z,5.78
2019-01-17T02:16:37.857Z,6.58
2019-01-17T02:19:04.846Z,7.55
2019-01-17T02:21:32.020Z,6.55
2019-01-17T02:24:09.415Z,7.37
2019-01-17T02:26:28.297Z,6.60
2019-01-17T02:28:58.035Z,6.75
2019-01-17T02:31:24.891Z,7.62
2019-01-17T02:33:51.959Z,6.83
2019-01-17T02:36:19.029Z,7.10
2019-01-17T02:38:46.487Z,6.55
2019-01-17T02:41:13.383Z,6.58
2019-01-17T02:43:41.789Z,6.95
2019-01-17T02:46:08.848Z,7.20
2019-01-17T02:48:38.775Z,6.83
2019-01-17T02:51:05.680Z,6.75
2019-01-17T02:53:32.782Z,7.40
2019-01-17T02:55:59.681Z,6.83
2019-01-17T02:58:36.022Z,7.58
2019-01-17T03:01:02.825Z,7.08
2019-01-17T03:03:31.120Z,7.00
2019-01-17T03:05:58.297Z,6.33
2019-01-17T03:08:25.569Z,6.45
2019-01-17T03:11:00.196Z,6.80
2019-01-17T03:16:03.027Z,6.95
2019-01-17T03:18:32.293Z,8.15
2019-01-17T03:20:58.605Z,7.03
2019-01-17T03:23:26.594Z,5.83
2019-01-17T03:25:55.509Z,7.05
2019-01-17T03:28:23.684Z,6.97
2019-01-17T03:30:50.648Z,6.78
2019-01-17T03:33:17.710Z,7.58
2019-01-17T03:35:47.984Z,5.95
2019-01-17T03:38:15.244Z,6.30
2019-01-17T03:40:44.103Z,6.50
2019-01-17T03:43:20.232Z,6.37
2019-01-17T03:45:47.618Z,6.55
2019-01-17T03:48:19.084Z,6.47
2019-01-17T03:50:46.134Z,6.45
2019-01-17T03:53:13.398Z,6.60
2019-01-17T03:55:40.497Z,6.53
2019-01-17T03:58:07.476Z,6.35
2019-01-17T04:00:34.425Z,6.55
2019-01-17T04:03:01.483Z,7.40
2019-01-17T04:08:14.408Z,7.50
2019-01-17T04:10:43.049Z,7.75
2019-01-17T04:13:11.658Z,7.37
2019-01-17T04:15:46.969Z,6.78
2019-01-17T04:18:15.078Z,6.40
2019-01-17T04:20:41.952Z,5.40
2019-01-17T04:23:08.721Z,5.95
2019-01-17T04:25:35.680Z,6.70
2019-01-17T04:28:06.684Z,6.33
2019-01-17T04:30:30.935Z,5.70
2019-01-17T04:32:57.923Z,5.40
2019-01-17T04:35:25.089Z,6.00
2019-01-17T04:37:51.955Z,5.30
2019-01-17T04:40:19.344Z,5.53
2019-01-17T04:42:46.403Z,5.87
2019-01-17T04:45:19.497Z,6.00
2019-01-17T04:47:46.460Z,5.90
2019-01-17T04:50:16.284Z,4.78
2019-01-17T04:52:43.184Z,5.42
2019-01-17T04:55:10.245Z,5.37
2019-01-17T04:57:36.988Z,5.78
2019-01-17T05:00:04.277Z,4.65
2019-01-17T05:02:31.480Z,5.08
2019-01-17T05:04:58.409Z,5.42
2019-01-17T05:07:25.268Z,6.85
2019-01-17T05:09:52.043Z,7.12
2019-01-17T05:12:18.617Z,7.25
2019-01-17T05:14:45.467Z,6.78
2019-01-17T05:17:12.002Z,6.85
2019-01-17T05:19:39.156Z,6.40
2019-01-17T05:22:05.793Z,5.65
2019-01-17T05:24:32.458Z,5.72
2019-01-17T05:26:58.943Z,6.00
2019-01-17T05:29:25.718Z,7.20
2019-01-17T05:31:52.416Z,6.03
2019-01-17T05:34:19.202Z,6.35
2019-01-17T05:36:45.780Z,5.80
2019-01-17T05:39:12.421Z,5.70
2019-01-17T05:41:38.959Z,5.40
2019-01-17T05:44:05.557Z,6.33
2019-01-17T05:46:32.056Z,6.30
2019-01-17T05:48:58.702Z,6.40
2019-01-17T05:51:25.385Z,7.62
2019-01-17T05:53:52.122Z,8.85
2019-01-17T05:56:18.694Z,7.97
2019-01-17T05:58:45.200Z,9.15
2019-01-17T06:01:11.722Z,8.98
2019-01-17T06:03:38.297Z,8.65
2019-01-17T06:06:04.807Z,8.70
2019-01-17T06:08:31.362Z,8.55
2019-01-17T06:10:58.108Z,8.53
2019-01-17T06:13:24.655Z,9.00
2019-01-17T06:15:51.397Z,8.98
2019-01-17T06:18:17.968Z,8.15
2019-01-17T06:20:44.555Z,8.48
2019-01-17T06:23:11.101Z,7.15
2019-01-17T06:25:37.719Z,9.43
2019-01-17T06:28:04.212Z,9.70
2019-01-17T06:30:30.918Z,9.53
2019-01-17T06:32:57.532Z,8.90
2019-01-17T06:35:24.165Z,8.90
2019-01-17T06:37:50.839Z,9.15
2019-01-17T06:40:17.466Z,8.15
2019-01-17T06:42:44.057Z,7.25
2019-01-17T06:45:10.575Z,7.78
2019-01-17T06:47:37.130Z,8.85
2019-01-17T06:50:03.739Z,7.45
2019-01-17T06:52:30.198Z,7.03
2019-01-17T06:54:56.959Z,7.67
2019-01-17T06:57:23.529Z,9.05
2019-01-17T06:59:50.169Z,7.78
2019-01-17T07:02:16.744Z,7.90
2019-01-17T07:04:43.364Z,8.10
2019-01-17T07:07:09.855Z,8.83
2019-01-17T07:09:36.500Z,7.75
2019-01-17T07:12:03.016Z,7.30
2019-01-17T07:14:29.737Z,7.42
2019-01-17T07:16:56.410Z,8.78
2019-01-17T07:19:23.144Z,8.58
2019-01-17T07:21:49.691Z,6.83
2019-01-17T07:24:16.277Z,8.23
2019-01-17T07:26:42.885Z,8.68
2019-01-17T07:29:09.454Z,8.28
2019-01-17T07:31:36.040Z,8.10
2019-01-17T07:34:02.614Z,9.73
2019-01-17T07:36:29.597Z,8.35
2019-01-17T07:38:56.354Z,7.75
2019-01-17T07:41:23.458Z,8.70
2019-01-17T07:43:50.310Z,10.18
2019-01-17T07:46:17.652Z,8.65
2019-01-17T07:48:44.526Z,10.65
2019-01-17T07:51:11.418Z,12.37
2019-01-17T07:53:38.280Z,12.28
2019-01-17T07:56:05.663Z,13.00
2019-01-17T07:58:32.417Z,10.65
2019-01-17T08:00:59.558Z,10.30
2019-01-17T08:03:26.663Z,7.30
2019-01-17T08:06:02.745Z,8.85
2019-01-17T08:08:29.786Z,7.75
2019-01-17T08:10:57.068Z,7.20
2019-01-17T08:13:23.930Z,8.45
2019-01-17T08:15:50.888Z,9.20
2019-01-17T08:18:21.247Z,10.80
2019-01-17T08:20:47.998Z,10.40
2019-01-17T08:23:14.871Z,12.50
2019-01-17T08:25:42.116Z,13.40
2019-01-17T08:28:08.898Z,12.93
2019-01-17T08:30:36.042Z,13.15
2019-01-17T08:33:04.679Z,14.15
2019-01-17T08:35:31.668Z,16.23
2019-01-17T08:37:58.724Z,14.00
2019-01-17T08:40:25.591Z,13.75
2019-01-17T08:42:52.457Z,13.18
2019-01-17T08:45:19.411Z,13.28
2019-01-17T08:47:46.273Z,13.53
2019-01-17T08:50:13.241Z,13.88
2019-01-17T08:52:40.009Z,13.68
2019-01-17T08:55:06.877Z,13.93
2019-01-17T08:57:33.945Z,13.30
2019-01-17T09:00:00.807Z,12.20
2019-01-17T09:02:27.564Z,11.75
2019-01-17T09:04:57.189Z,11.97
2019-01-17T09:07:24.200Z,11.40
2019-01-17T09:09:50.925Z,12.50
2019-01-17T09:12:18.143Z,12.07
2019-01-17T09:14:44.972Z,11.53
2019-01-17T09:17:11.953Z,13.13
2019-01-17T09:19:40.107Z,11.28
2019-01-17T09:22:06.997Z,11.30
2019-01-17T09:24:34.074Z,9.45
2019-01-17T09:27:01.231Z,10.48
2019-01-17T09:29:27.881Z,9.23
2019-01-17T09:31:54.643Z,8.40
2019-01-17T09:34:21.325Z,7.78
2019-01-17T09:36:49.307Z,8.25
2019-01-17T09:39:16.202Z,10.88
2019-01-17T09:41:43.251Z,9.10
2019-01-17T09:44:10.004Z,9.80
2019-01-17T09:46:36.962Z,8.25
2019-01-17T09:49:03.827Z,9.93
2019-01-17T09:51:30.667Z,9.18
2019-01-17T09:53:57.651Z,9.20
2019-01-17T09:56:25.866Z,9.35
2019-01-17T09:58:52.530Z,7.65
2019-01-17T10:01:19.598Z,8.85
2019-01-17T10:03:46.477Z,9.03
2019-01-17T10:06:13.308Z,8.45
2019-01-17T10:08:40.181Z,8.78
2019-01-17T10:11:07.041Z,9.55
2019-01-17T10:13:33.800Z,10.15
2019-01-17T10:16:00.486Z,9.45
2019-01-17T10:18:27.420Z,9.80
2019-01-17T10:20:54.136Z,9.23
2019-01-17T10:23:20.761Z,10.55
2019-01-17T10:25:47.459Z,9.65
2019-01-17T10:28:14.183Z,9.40
2019-01-17T10:30:41.013Z,9.55
2019-01-17T10:33:07.806Z,10.35
2019-01-17T10:35:34.891Z,11.15
2019-01-17T10:38:01.754Z,10.48
2019-01-17T10:40:28.635Z,9.55
2019-01-17T10:42:55.383Z,9.10
2019-01-17T10:45:22.040Z,9.05
2019-01-17T10:47:49.001Z,9.53
2019-01-17T10:50:15.650Z,11.80
2019-01-17T10:52:43.722Z,11.10
2019-01-17T10:55:10.487Z,11.03
2019-01-17T10:57:37.376Z,10.40
2019-01-17T11:00:04.238Z,10.68
2019-01-17T11:02:30.900Z,10.72
2019-01-17T11:04:57.581Z,10.48
2019-01-17T11:07:24.314Z,10.35
2019-01-17T11:09:51.161Z,10.75
2019-01-17T11:12:17.924Z,11.03
2019-01-17T11:14:46.947Z,10.25
2019-01-17T11:17:13.701Z,11.10
2019-01-17T11:19:40.487Z,10.40
2019-01-17T11:22:07.444Z,10.60
2019-01-17T11:24:34.327Z,11.08
2019-01-17T11:27:00.990Z,11.33
2019-01-17T11:29:27.639Z,11.63
2019-01-17T11:31:54.320Z,11.00
2019-01-17T11:34:21.869Z,10.23
2019-01-17T11:36:50.080Z,9.80
2019-01-17T11:39:16.620Z,8.88
2019-01-17T11:41:43.260Z,8.35
2019-01-17T11:44:09.921Z,8.68
2019-01-17T11:46:36.585Z,9.30
2019-01-17T11:49:03.377Z,8.10
2019-01-17T11:51:30.012Z,8.45
2019-01-17T11:53:56.577Z,8.90
2019-01-17T11:56:23.382Z,7.90
2019-01-17T11:58:49.936Z,8.90
2019-01-17T12:01:16.622Z,10.30
2019-01-17T12:03:43.150Z,10.28
2019-01-17T12:06:09.705Z,8.38
2019-01-17T12:08:36.464Z,9.35
2019-01-17T12:11:03.104Z,10.88
2019-01-17T12:13:29.778Z,11.03
2019-01-17T12:15:56.440Z,10.43
2019-01-17T12:18:23.307Z,10.72
2019-01-17T12:20:49.834Z,11.90
2019-01-17T12:23:16.481Z,10.10
2019-01-17T12:25:42.988Z,9.68
2019-01-17T12:28:09.752Z,12.43
2019-01-17T12:30:36.252Z,11.73
2019-01-17T12:33:02.894Z,10.80
2019-01-17T12:35:29.569Z,10.53
2019-01-17T12:37:56.189Z,10.48
2019-01-17T12:40:22.774Z,10.72
2019-01-17T12:42:49.274Z,9.15
2019-01-17T12:45:15.781Z,7.20
2019-01-17T12:47:42.418Z,2.75
2019-01-17T12:50:09.078Z,2.15
2019-01-17T12:52:35.838Z,2.10
2019-01-17T12:55:02.325Z,1.57
2019-01-17T12:57:29.009Z,1.80
2019-01-17T12:59:55.528Z,2.00
2019-01-17T13:02:22.149Z,1.50
2019-01-17T13:04:48.610Z,2.02
2019-01-17T13:07:15.201Z,1.67
2019-01-17T13:09:41.762Z,1.77
2019-01-17T13:12:08.301Z,1.82
2019-01-17T13:14:34.880Z,1.40
2019-01-17T13:17:01.442Z,1.05
2019-01-17T13:19:27.922Z,1.07
2019-01-17T13:21:54.436Z,1.40
2019-01-17T13:24:20.967Z,1.27
2019-01-17T13:26:47.567Z,0.88
2019-01-17T13:29:14.079Z,1.45
2019-01-17T13:31:40.651Z,1.40
2019-01-17T13:34:07.192Z,1.80
2019-01-17T13:36:40.109Z,1.20
2019-01-17T13:39:02.278Z,0.90
2019-01-17T13:41:28.816Z,1.77
2019-01-17T13:43:55.378Z,1.95
2019-01-17T13:46:21.903Z,2.35
2019-01-17T13:48:48.677Z,3.37
2019-01-17T13:51:15.234Z,3.33
2019-01-17T13:53:41.852Z,3.12
2019-01-17T13:56:08.487Z,3.20
2019-01-17T13:58:35.157Z,3.08
2019-01-17T14:01:01.729Z,2.85
2019-01-17T14:03:28.238Z,3.45
2019-01-17T14:05:54.802Z,3.05
2019-01-17T14:08:21.318Z,2.80
2019-01-17T14:10:47.867Z,2.40
2019-01-17T14:13:14.396Z,2.65
2019-01-17T14:15:40.990Z,2.25
2019-01-17T14:18:07.492Z,1.80
2019-01-17T14:20:34.122Z,0.90
2019-01-17T14:23:00.655Z,1.00
2019-01-17T14:25:27.128Z,0.93
2019-01-17T14:27:53.621Z,1.75
2019-01-17T14:30:20.167Z,1.60
2019-01-17T14:32:46.793Z,1.37
2019-01-17T14:35:13.282Z,1.00
2019-01-17T14:37:39.932Z,1.20
2019-01-17T14:40:06.590Z,1.37
2019-01-17T14:42:33.080Z,1.12
2019-01-17T14:44:59.639Z,1.70
2019-01-17T14:47:26.143Z,2.00
2019-01-17T14:49:52.697Z,2.77
2019-01-17T14:52:19.219Z,1.52
2019-01-17T14:54:45.759Z,1.60
2019-01-17T14:57:12.335Z,2.17
2019-01-17T14:59:38.984Z,1.60
2019-01-17T15:02:05.595Z,1.60
2019-01-17T15:04:32.130Z,2.00
2019-01-17T15:06:58.683Z,2.10
2019-01-17T15:09:25.198Z,2.40
2019-01-17T15:11:51.727Z,2.42
2019-01-17T15:14:18.217Z,2.33
2019-01-17T15:16:44.777Z,2.55
2019-01-17T15:19:11.456Z,1.80
2019-01-17T15:21:37.956Z,2.33
2019-01-17T15:24:04.616Z,2.37
2019-01-17T15:26:31.142Z,2.12
2019-01-17T15:28:57.682Z,1.60
2019-01-17T15:31:24.201Z,2.77
2019-01-17T15:33:50.765Z,2.70
2019-01-17T15:36:17.317Z,3.02
2019-01-17T15:38:44.060Z,4.10
2019-01-17T15:41:10.580Z,3.58
2019-01-17T15:43:37.264Z,3.55
2019-01-17T15:46:04.001Z,4.22
2019-01-17T15:48:30.635Z,3.62
2019-01-17T15:50:57.228Z,4.20
2019-01-17T15:53:23.940Z,4.62
2019-01-17T15:55:50.662Z,4.10
2019-01-17T15:58:17.299Z,4.00
2019-01-17T16:00:44.041Z,4.92
2019-01-17T16:03:10.662Z,3.72
2019-01-17T16:05:37.281Z,3.98
2019-01-17T16:08:03.875Z,4.45
2019-01-17T16:10:30.543Z,4.12
2019-01-17T16:12:57.062Z,4.22
2019-01-17T16:15:23.757Z,4.15
2019-01-17T16:17:50.460Z,4.00
2019-01-17T16:20:17.133Z,3.47
2019-01-17T16:22:43.815Z,4.78
2019-01-17T16:25:10.607Z,5.05
2019-01-17T16:27:41.837Z,4.78
2019-01-17T16:30:06.139Z,4.90
2019-01-17T16:32:32.686Z,5.15
2019-01-17T16:34:59.503Z,6.10
2019-01-17T16:37:26.185Z,7.03
2019-01-17T16:39:52.881Z,7.05
2019-01-17T16:42:19.630Z,7.60
2019-01-17T16:44:46.289Z,8.65
2019-01-17T16:47:13.168Z,7.33
2019-01-17T16:49:41.027Z,9.65
2019-01-17T16:52:07.725Z,8.70
2019-01-17T16:54:34.581Z,8.40
2019-01-17T16:57:01.347Z,15.30
2019-01-17T16:59:28.207Z,16.80
2019-01-17T17:01:54.947Z,14.33
2019-01-17T17:04:21.803Z,13.03
2019-01-17T17:06:48.842Z,13.05
2019-01-17T17:09:15.874Z,12.18
2019-01-17T17:11:42.536Z,11.20
2019-01-17T17:14:09.399Z,9.25
2019-01-17T17:16:36.170Z,11.28
2019-01-17T17:19:03.131Z,8.28
2019-01-17T17:21:29.998Z,7.72
2019-01-17T17:23:56.864Z,7.75
2019-01-17T17:26:23.718Z,8.90
2019-01-17T17:28:50.687Z,7.30
2019-01-17T17:31:17.373Z,16.93
2019-01-17T17:33:44.227Z,16.60
2019-01-17T17:36:11.060Z,15.35
2019-01-17T17:38:37.740Z,14.47
2019-01-17T17:41:04.359Z,14.10
2019-01-17T17:43:31.061Z,21.93
2019-01-17T17:45:58.042Z,18.05
2019-01-17T17:48:26.099Z,19.73
2019-01-17T17:50:52.739Z,19.60
2019-01-17T17:53:19.440Z,18.55
2019-01-17T17:55:46.199Z,16.60
2019-01-17T17:58:12.980Z,14.50
2019-01-17T18:00:40.143Z,13.70
2019-01-17T18:03:06.818Z,16.35
2019-01-17T18:05:33.582Z,15.18
2019-01-17T18:08:00.278Z,13.00
2019-01-17T18:10:26.859Z,14.68
2019-01-17T18:12:53.454Z,16.30
2019-01-17T18:15:20.208Z,14.40
2019-01-17T18:17:46.868Z,12.68
2019-01-17T18:20:13.628Z,9.88
2019-01-17T18:22:40.331Z,11.15
2019-01-17T18:25:07.467Z,11.22
2019-01-17T18:27:34.267Z,7.45
2019-01-17T18:30:01.088Z,7.78
2019-01-17T18:32:27.948Z,7.50
2019-01-17T18:34:54.728Z,7.60
2019-01-17T18:37:21.404Z,5.87
2019-01-17T18:39:48.133Z,8.00
2019-01-17T18:42:14.854Z,6.90
2019-01-17T18:44:41.654Z,8.43
2019-01-17T18:47:08.535Z,10.58
2019-01-17T18:49:35.816Z,8.78
2019-01-17T18:52:02.354Z,8.50
2019-01-17T18:54:29.332Z,13.95
2019-01-17T18:56:56.054Z,15.90
2019-01-17T18:59:22.654Z,12.00
2019-01-17T19:01:49.413Z,11.45
2019-01-17T19:04:16.084Z,12.68
2019-01-17T19:06:42.832Z,10.93
2019-01-17T19:09:09.692Z,9.63
2019-01-17T19:11:36.352Z,8.28
2019-01-17T19:14:03.013Z,6.03
2019-01-17T19:16:29.673Z,6.60
2019-01-17T19:18:56.313Z,6.70
2019-01-17T19:21:23.393Z,13.98
2019-01-17T19:23:50.175Z,30.55
2019-01-17T19:26:16.914Z,28.07
2019-01-17T19:28:43.793Z,22.98
2019-01-17T19:31:10.648Z,9.43
2019-01-17T19:33:37.428Z,10.80
2019-01-17T19:36:04.342Z,10.70
2019-01-17T19:38:31.122Z,8.05
2019-01-17T19:40:58.123Z,6.08
2019-01-17T19:43:24.742Z,5.62
2019-01-17T19:45:51.642Z,5.70
2019-01-17T19:48:18.266Z,5.97
2019-01-17T19:50:44.838Z,6.15
2019-01-17T19:53:11.659Z,5.00
2019-01-17T19:55:38.440Z,3.17
2019-01-17T19:58:05.056Z,4.80
2019-01-17T20:00:31.868Z,10.60
2019-01-17T20:02:58.764Z,6.12
2019-01-17T20:05:29.969Z,7.95
2019-01-17T20:07:55.363Z,7.97
2019-01-17T20:10:22.351Z,6.97
2019-01-17T20:12:48.951Z,7.15
2019-01-17T20:15:15.893Z,6.75
2019-01-17T20:17:42.412Z,7.87
2019-01-17T20:20:09.389Z,7.37
2019-01-17T20:22:36.210Z,7.53
2019-01-17T20:25:03.065Z,7.25
2019-01-17T20:27:31.103Z,7.33
2019-01-17T20:29:57.871Z,8.28
2019-01-17T20:32:24.831Z,7.17
2019-01-17T20:34:51.671Z,7.65
2019-01-17T20:37:18.370Z,7.12
2019-01-17T20:39:45.030Z,6.80
2019-01-17T20:42:11.690Z,7.28
2019-01-17T20:44:38.304Z,8.10
2019-01-17T20:47:04.985Z,7.20
2019-01-17T20:49:31.944Z,8.03
2019-01-17T20:51:58.624Z,8.25
2019-01-17T20:54:25.365Z,8.18
2019-01-17T20:56:51.891Z,8.00
2019-01-17T20:59:18.603Z,16.97
2019-01-17T21:01:45.364Z,12.13
2019-01-17T21:04:12.104Z,9.20
2019-01-17T21:06:38.863Z,8.43
2019-01-17T21:09:05.560Z,9.80
2019-01-17T21:11:32.288Z,10.65
2019-01-17T21:13:59.084Z,14.00
2019-01-17T21:16:25.737Z,15.15
2019-01-17T21:18:52.531Z,11.12
2019-01-17T21:21:19.271Z,10.80
2019-01-17T21:23:45.931Z,9.15
2019-01-17T21:26:12.585Z,11.03
2019-01-17T21:28:39.107Z,10.58
2019-01-17T21:31:05.757Z,13.50
2019-01-17T21:33:32.365Z,14.30
2019-01-17T21:35:59.226Z,11.20
2019-01-17T21:38:26.067Z,10.85
2019-01-17T21:40:52.883Z,9.83
2019-01-17T21:43:19.733Z,10.93
2019-01-17T21:45:46.500Z,9.30
2019-01-17T21:48:13.370Z,8.60
2019-01-17T21:50:40.152Z,8.55
2019-01-17T21:53:06.990Z,10.25
2019-01-17T21:55:33.873Z,12.25
2019-01-17T21:58:00.817Z,12.00
2019-01-17T22:00:27.703Z,12.45
2019-01-17T22:02:54.643Z,12.70
2019-01-17T22:05:21.614Z,12.43
2019-01-17T22:07:48.366Z,11.75
2019-01-17T22:10:14.928Z,8.85
2019-01-17T22:12:41.698Z,10.10
2019-01-17T22:15:08.588Z,7.92
2019-01-17T22:17:35.248Z,10.98
2019-01-17T22:20:01.911Z,12.33
2019-01-17T22:22:28.856Z,32.30
2019-01-17T22:24:55.616Z,28.15
2019-01-17T22:27:24.161Z,29.20
2019-01-17T22:29:51.171Z,33.55
2019-01-17T22:32:18.011Z,30.62
2019-01-17T22:34:44.680Z,31.65
2019-01-17T22:37:11.569Z,31.05
2019-01-17T22:39:38.347Z,30.43
2019-01-17T22:42:05.206Z,29.87
2019-01-17T22:44:31.810Z,30.70
2019-01-17T22:46:58.656Z,31.27
2019-01-17T22:49:34.478Z,21.17
2019-01-17T22:52:01.151Z,13.95
2019-01-17T22:54:27.804Z,10.80
2019-01-17T22:56:54.973Z,10.60
2019-01-17T22:59:21.765Z,8.83
2019-01-17T23:01:48.594Z,9.50
2019-01-17T23:04:15.255Z,9.78
2019-01-17T23:06:42.136Z,8.65
2019-01-17T23:09:08.914Z,12.58
2019-01-17T23:11:35.735Z,9.80
2019-01-17T23:14:02.307Z,9.45
2019-01-17T23:16:29.083Z,10.40
2019-01-17T23:18:55.936Z,13.05
2019-01-17T23:21:23.243Z,12.88
2019-01-17T23:23:49.852Z,11.63
2019-01-17T23:26:16.735Z,11.35
2019-01-17T23:28:43.582Z,9.60
2019-01-17T23:31:10.474Z,9.55
2019-01-17T23:33:39.997Z,9.53
2019-01-17T23:36:07.083Z,9.60
2019-01-17T23:38:33.969Z,11.05
2019-01-17T23:41:01.382Z,10.65
2019-01-17T23:43:28.254Z,11.38
2019-01-17T23:45:55.333Z,10.25
2019-01-17T23:48:22.133Z,9.88
2019-01-17T23:50:48.872Z,10.85
2019-01-17T23:53:16.655Z,10.58
2019-01-17T23:55:43.428Z,12.28
2019-01-17T23:58:10.592Z,11.25
